createdAt,value
2018-10-12T00:00:44.047Z,33.03
2018-10-12T00:03:13.758Z,31.87
2018-10-12T00:05:43.339Z,27.80
2018-10-12T00:08:12.542Z,29.03
2018-10-12T00:10:41.362Z,27.90
2018-10-12T00:13:10.051Z,31.90
2018-10-12T00:15:39.056Z,31.83
2018-10-12T00:18:07.998Z,27.60
2018-10-12T00:20:36.794Z,26.47
2018-10-12T00:23:05.463Z,32.73
2018-10-12T00:25:34.264Z,28.43
2018-10-12T00:28:03.297Z,35.80
2018-10-12T00:30:32.184Z,29.83
2018-10-12T00:33:00.927Z,27.70
2018-10-12T00:35:29.871Z,30.27
2018-10-12T00:37:58.843Z,27.80
2018-10-12T00:40:28.018Z,31.33
2018-10-12T00:42:56.909Z,30.90
2018-10-12T00:45:25.778Z,21.77
2018-10-12T00:48:00.468Z,25.73
2018-10-12T00:50:30.448Z,21.47
2018-10-12T00:52:59.219Z,23.33
2018-10-12T00:55:28.963Z,28.10
2018-10-12T00:57:57.746Z,25.67
2018-10-12T01:00:27.044Z,25.07
2018-10-12T01:02:56.586Z,22.60
2018-10-12T01:05:25.625Z,23.70
2018-10-12T01:07:54.770Z,28.83
2018-10-12T01:10:24.067Z,25.73
2018-10-12T01:12:53.200Z,22.73
2018-10-12T01:15:22.527Z,24.63
2018-10-12T01:17:52.133Z,20.23
2018-10-12T01:20:20.939Z,22.80
2018-10-12T01:22:49.598Z,27.43
2018-10-12T01:25:18.743Z,27.67
2018-10-12T01:27:47.926Z,22.10
2018-10-12T01:30:16.820Z,22.10
2018-10-12T01:32:51.150Z,26.90
2018-10-12T01:35:19.969Z,28.20
2018-10-12T01:37:48.943Z,26.27
2018-10-12T01:40:17.931Z,26.00
2018-10-12T01:42:46.811Z,23.77
2018-10-12T01:45:15.602Z,22.80
2018-10-12T01:47:44.710Z,23.27
2018-10-12T01:50:13.577Z,27.87
2018-10-12T01:52:42.371Z,26.33
2018-10-12T01:55:11.267Z,26.83
2018-10-12T01:57:40.155Z,24.47
2018-10-12T02:00:09.174Z,24.10
2018-10-12T02:02:38.387Z,22.03
2018-10-12T02:05:08.039Z,27.93
2018-10-12T02:07:36.988Z,30.67
2018-10-12T02:10:06.285Z,29.63
2018-10-12T02:12:35.351Z,24.20
2018-10-12T02:15:04.340Z,29.30
2018-10-12T02:17:33.171Z,29.37
2018-10-12T02:20:01.864Z,31.20
2018-10-12T02:22:30.651Z,30.00
2018-10-12T02:24:59.814Z,31.87
2018-10-12T02:27:28.694Z,27.47
2018-10-12T02:29:57.976Z,32.53
2018-10-12T02:32:26.899Z,28.30
2018-10-12T02:34:56.010Z,28.43
2018-10-12T02:37:25.278Z,31.17
2018-10-12T02:39:54.121Z,39.07
2018-10-12T02:42:23.042Z,28.23
2018-10-12T02:44:52.496Z,27.97
2018-10-12T02:47:21.226Z,30.77
2018-10-12T02:49:49.935Z,30.60
2018-10-12T02:52:18.982Z,34.93
2018-10-12T02:54:48.046Z,32.60
2018-10-12T02:57:17.129Z,30.40
2018-10-12T02:59:45.961Z,31.10
2018-10-12T03:02:14.717Z,28.07
2018-10-12T03:04:43.925Z,40.13
2018-10-12T03:07:13.126Z,32.77
2018-10-12T03:09:42.052Z,38.30
2018-10-12T03:12:10.892Z,30.33
2018-10-12T03:14:39.682Z,37.70
2018-10-12T03:17:08.773Z,29.10
2018-10-12T03:19:37.785Z,25.70
2018-10-12T03:22:06.504Z,32.80
2018-10-12T03:24:35.192Z,35.43
2018-10-12T03:27:03.918Z,30.73
2018-10-12T03:29:32.858Z,42.70
2018-10-12T03:32:02.027Z,29.47
2018-10-12T03:34:31.440Z,26.40
2018-10-12T03:37:00.292Z,38.80
2018-10-12T03:39:29.254Z,29.80
2018-10-12T03:41:58.338Z,35.43
2018-10-12T03:44:27.400Z,33.77
2018-10-12T03:46:56.454Z,30.17
2018-10-12T03:49:25.451Z,33.80
2018-10-12T03:51:54.272Z,33.50
2018-10-12T03:54:23.246Z,28.97
2018-10-12T03:56:52.603Z,30.37
2018-10-12T03:59:21.524Z,37.53
2018-10-12T04:01:50.246Z,35.40
2018-10-12T04:04:19.140Z,34.27
2018-10-12T04:06:48.122Z,38.37
2018-10-12T04:09:17.033Z,37.70
2018-10-12T04:11:46.147Z,46.40
2018-10-12T04:14:14.971Z,44.07
2018-10-12T04:16:43.924Z,40.53
2018-10-12T04:19:12.914Z,38.40
2018-10-12T04:21:41.543Z,42.13
2018-10-12T04:24:10.234Z,69.30
2018-10-12T04:26:39.692Z,45.07
2018-10-12T04:29:08.590Z,40.53
2018-10-12T04:31:37.683Z,36.87
2018-10-12T04:34:06.721Z,35.90
2018-10-12T04:36:35.676Z,43.37
2018-10-12T04:39:15.849Z,46.50
2018-10-12T04:41:44.899Z,37.90
2018-10-12T04:44:13.992Z,61.03
2018-10-12T04:46:44.087Z,54.97
2018-10-12T04:49:14.716Z,49.97
2018-10-12T04:51:48.169Z,54.87
2018-10-12T04:54:17.487Z,54.07
2018-10-12T04:56:47.011Z,57.07
2018-10-12T04:59:16.024Z,64.80
2018-10-12T05:01:44.959Z,63.87
2018-10-12T05:04:13.850Z,57.23
2018-10-12T05:06:43.083Z,43.67
2018-10-12T05:09:13.001Z,136.67
2018-10-12T05:11:42.100Z,59.03
2018-10-12T05:14:11.699Z,45.50
2018-10-12T05:16:40.484Z,37.80
2018-10-12T05:19:09.287Z,41.37
2018-10-12T05:21:38.372Z,48.50
2018-10-12T05:24:07.241Z,42.87
2018-10-12T05:26:36.071Z,101.50
2018-10-12T05:29:04.758Z,46.43
2018-10-12T05:31:33.626Z,51.27
2018-10-12T05:34:02.277Z,44.90
2018-10-12T05:36:31.187Z,39.17
2018-10-12T05:39:00.256Z,35.50
2018-10-12T05:41:29.330Z,46.23
2018-10-12T05:43:58.267Z,40.53
2018-10-12T05:46:26.977Z,51.73
2018-10-12T05:49:06.931Z,35.57
2018-10-12T05:51:35.891Z,51.80
2018-10-12T05:54:05.434Z,47.13
2018-10-12T05:56:36.180Z,47.20
2018-10-12T05:59:05.922Z,40.73
2018-10-12T06:01:35.094Z,35.40
2018-10-12T06:04:04.203Z,41.33
2018-10-12T06:06:33.210Z,43.07
2018-10-12T06:09:02.183Z,27.87
2018-10-12T06:11:31.367Z,32.80
2018-10-12T06:14:00.130Z,32.90
2018-10-12T06:16:29.027Z,29.43
2018-10-12T06:18:57.695Z,34.73
2018-10-12T06:21:26.602Z,34.33
2018-10-12T06:23:55.800Z,34.07
2018-10-12T06:26:24.678Z,29.17
2018-10-12T06:28:53.470Z,38.27
2018-10-12T06:31:22.794Z,30.43
2018-10-12T06:33:51.775Z,27.50
2018-10-12T06:36:20.862Z,35.53
2018-10-12T06:38:50.420Z,29.80
2018-10-12T06:41:19.367Z,31.23
2018-10-12T06:43:48.253Z,33.07
2018-10-12T06:46:17.508Z,29.63
2018-10-12T06:48:46.240Z,29.97
2018-10-12T06:51:15.036Z,30.40
2018-10-12T06:53:44.411Z,29.80
2018-10-12T06:56:13.327Z,36.13
2018-10-12T06:58:42.219Z,25.73
2018-10-12T07:01:11.294Z,28.47
2018-10-12T07:03:40.218Z,27.47
2018-10-12T07:06:09.078Z,25.90
2018-10-12T07:08:38.455Z,40.93
2018-10-12T07:11:07.511Z,23.30
2018-10-12T07:13:36.504Z,24.33
2018-10-12T07:16:05.543Z,30.20
2018-10-12T07:18:34.524Z,26.27
2018-10-12T07:21:03.491Z,25.77
2018-10-12T07:23:32.533Z,26.73
2018-10-12T07:26:01.325Z,30.13
2018-10-12T07:28:30.149Z,26.40
2018-10-12T07:30:58.832Z,25.23
2018-10-12T07:33:27.847Z,42.93
2018-10-12T07:35:56.811Z,38.00
2018-10-12T07:38:25.813Z,28.30
2018-10-12T07:40:54.831Z,26.73
2018-10-12T07:43:23.811Z,25.57
2018-10-12T07:45:52.608Z,30.63
2018-10-12T07:48:21.660Z,31.33
2018-10-12T07:50:50.763Z,33.60
2018-10-12T07:53:20.100Z,24.07
2018-10-12T07:55:49.330Z,25.20
2018-10-12T07:58:18.380Z,36.50
2018-10-12T08:00:47.421Z,31.27
2018-10-12T08:03:16.409Z,30.33
2018-10-12T08:05:45.306Z,28.43
2018-10-12T08:08:14.690Z,28.50
2018-10-12T08:10:43.869Z,23.83
2018-10-12T08:13:12.601Z,17.40
2018-10-12T08:15:41.745Z,20.33
2018-10-12T08:18:10.686Z,24.40
2018-10-12T08:20:39.734Z,28.47
2018-10-12T08:23:09.154Z,23.43
2018-10-12T08:25:38.166Z,20.17
2018-10-12T08:28:07.334Z,21.40
2018-10-12T08:30:36.446Z,20.90
2018-10-12T08:33:05.157Z,21.03
2018-10-12T08:35:34.141Z,20.53
2018-10-12T08:38:03.042Z,26.73
2018-10-12T08:40:31.791Z,18.50
2018-10-12T08:43:00.434Z,23.60
2018-10-12T08:45:29.468Z,21.27
2018-10-12T08:47:58.272Z,21.67
2018-10-12T08:50:27.193Z,19.43
2018-10-12T08:52:56.258Z,27.73
2018-10-12T08:55:25.304Z,24.40
2018-10-12T08:57:54.444Z,20.40
2018-10-12T09:00:23.482Z,23.40
2018-10-12T09:02:52.343Z,20.87
2018-10-12T09:05:21.272Z,26.03
2018-10-12T09:07:50.545Z,20.33
2018-10-12T09:10:19.625Z,19.13
2018-10-12T09:12:48.304Z,21.13
2018-10-12T09:15:17.425Z,26.30
2018-10-12T09:17:46.623Z,23.37
2018-10-12T09:20:15.434Z,21.87
2018-10-12T09:22:44.480Z,24.17
2018-10-12T09:25:13.489Z,18.40
2018-10-12T09:27:42.367Z,17.90
2018-10-12T09:30:11.425Z,16.23
2018-10-12T09:32:40.359Z,16.57
2018-10-12T09:35:09.407Z,18.80
2018-10-12T09:37:38.562Z,24.17
2018-10-12T09:40:07.276Z,15.10
2018-10-12T09:42:36.028Z,17.97
2018-10-12T09:45:05.460Z,17.80
2018-10-12T09:47:34.317Z,19.10
2018-10-12T09:50:03.186Z,12.73
2018-10-12T09:52:32.229Z,16.53
2018-10-12T09:55:00.860Z,16.40
2018-10-12T09:57:36.963Z,10.63
2018-10-12T10:00:12.790Z,18.40
2018-10-12T10:02:48.801Z,23.17
2018-10-12T10:05:18.019Z,22.33
2018-10-12T10:07:46.900Z,25.03
2018-10-12T10:10:15.662Z,11.03
2018-10-12T10:12:44.746Z,15.77
2018-10-12T10:15:13.959Z,12.97
2018-10-12T10:17:43.040Z,14.17
2018-10-12T10:20:11.966Z,12.43
2018-10-12T10:22:41.185Z,19.70
2018-10-12T10:25:10.383Z,16.93
2018-10-12T10:27:38.955Z,12.57
2018-10-12T10:30:08.363Z,15.40
2018-10-12T10:32:37.539Z,17.40
2018-10-12T10:35:06.835Z,15.20
2018-10-12T10:37:35.916Z,20.30
2018-10-12T10:40:04.858Z,15.27
2018-10-12T10:42:33.582Z,21.00
2018-10-12T10:45:02.853Z,23.83
2018-10-12T10:47:31.450Z,12.43
2018-10-12T10:50:00.167Z,20.87
2018-10-12T10:52:29.194Z,15.43
2018-10-12T10:54:58.153Z,14.47
2018-10-12T10:57:26.942Z,20.80
2018-10-12T10:59:55.906Z,9.77
2018-10-12T11:02:24.708Z,10.20
2018-10-12T11:04:53.666Z,23.03
2018-10-12T11:07:22.713Z,14.97
2018-10-12T11:09:51.592Z,13.30
2018-10-12T11:12:20.314Z,19.83
2018-10-12T11:14:48.977Z,12.33
2018-10-12T11:17:17.832Z,12.37
2018-10-12T11:19:46.859Z,19.30
2018-10-12T11:22:15.595Z,21.93
2018-10-12T11:24:44.441Z,14.97
2018-10-12T11:27:13.470Z,15.40
2018-10-12T11:29:42.336Z,13.20
2018-10-12T11:32:11.427Z,16.67
2018-10-12T11:34:40.407Z,15.03
2018-10-12T11:37:09.239Z,14.40
2018-10-12T11:39:37.984Z,19.40
2018-10-12T11:42:06.771Z,12.57
2018-10-12T11:44:35.660Z,11.17
2018-10-12T11:47:05.019Z,22.40
2018-10-12T11:49:33.979Z,16.77
2018-10-12T11:52:03.108Z,19.27
2018-10-12T11:54:32.187Z,15.67
2018-10-12T11:57:01.148Z,20.90
2018-10-12T11:59:30.257Z,13.90
2018-10-12T12:01:59.092Z,18.33
2018-10-12T12:04:27.922Z,24.00
2018-10-12T12:06:56.573Z,21.63
2018-10-12T12:09:26.386Z,11.30
2018-10-12T12:11:55.084Z,17.90
2018-10-12T12:14:24.347Z,18.33
2018-10-12T12:16:53.641Z,15.25
2018-10-12T12:19:22.512Z,13.83
2018-10-12T12:21:51.411Z,13.70
2018-10-12T12:24:20.528Z,21.07
2018-10-12T12:26:49.710Z,9.25
2018-10-12T12:29:18.801Z,16.87
2018-10-12T12:31:48.022Z,16.37
2018-10-12T12:34:17.098Z,19.70
2018-10-12T12:36:45.682Z,17.45
2018-10-12T12:39:14.638Z,12.20
2018-10-12T12:41:43.371Z,11.05
2018-10-12T12:44:12.314Z,10.03
2018-10-12T12:46:41.359Z,15.38
2018-10-12T12:49:10.680Z,13.93
2018-10-12T12:51:39.485Z,21.87
2018-10-12T12:54:08.766Z,14.40
2018-10-12T12:56:37.811Z,13.13
2018-10-12T12:59:06.728Z,16.62
2018-10-12T13:01:36.029Z,11.53
2018-10-12T13:04:05.037Z,19.20
2018-10-12T13:06:33.793Z,16.53
2018-10-12T13:09:02.830Z,14.20
2018-10-12T13:11:31.499Z,11.67
2018-10-12T13:14:00.386Z,13.60
2018-10-12T13:16:29.599Z,28.90
2018-10-12T13:18:58.783Z,10.63
2018-10-12T13:21:27.982Z,12.57
2018-10-12T13:23:56.697Z,18.17
2018-10-12T13:26:25.388Z,15.70
2018-10-12T13:28:54.789Z,20.47
2018-10-12T13:31:23.897Z,16.70
2018-10-12T13:33:52.747Z,15.23
2018-10-12T13:36:21.477Z,12.53
2018-10-12T13:38:50.184Z,16.40
2018-10-12T13:41:18.840Z,18.13
2018-10-12T13:43:48.159Z,14.67
2018-10-12T13:46:17.005Z,12.17
2018-10-12T13:48:45.895Z,21.63
2018-10-12T13:51:15.315Z,12.10
2018-10-12T13:53:43.986Z,17.60
2018-10-12T13:56:12.935Z,21.97
2018-10-12T13:58:42.304Z,24.07
2018-10-12T14:01:11.382Z,13.73
2018-10-12T14:03:40.396Z,17.73
2018-10-12T14:06:09.219Z,23.12
2018-10-12T14:08:37.983Z,19.57
2018-10-12T14:11:06.838Z,12.80
2018-10-12T14:13:35.839Z,12.07
2018-10-12T14:16:04.840Z,14.83
2018-10-12T14:18:34.026Z,15.23
2018-10-12T14:21:02.714Z,17.83
2018-10-12T14:23:31.507Z,20.37
2018-10-12T14:26:00.354Z,16.27
2018-10-12T14:28:29.387Z,13.67
2018-10-12T14:30:58.381Z,12.47
2018-10-12T14:33:27.708Z,13.37
2018-10-12T14:35:56.530Z,15.00
2018-10-12T14:38:25.142Z,14.47
2018-10-12T14:40:54.084Z,14.57
2018-10-12T14:43:22.999Z,12.43
2018-10-12T14:45:51.935Z,13.40
2018-10-12T14:48:21.609Z,18.70
2018-10-12T14:50:50.632Z,18.50
2018-10-12T14:53:19.665Z,13.90
2018-10-12T14:55:48.971Z,12.93
2018-10-12T14:58:17.931Z,14.10
2018-10-12T15:00:46.871Z,12.73
2018-10-12T15:03:16.232Z,16.33
2018-10-12T15:05:45.043Z,14.07
2018-10-12T15:08:13.775Z,13.80
2018-10-12T15:10:42.787Z,15.90
2018-10-12T15:13:11.938Z,16.73
2018-10-12T15:15:41.387Z,13.97
2018-10-12T15:18:10.394Z,14.93
2018-10-12T15:20:39.286Z,16.53
2018-10-12T15:23:08.454Z,15.07
2018-10-12T15:25:37.427Z,14.77
2018-10-12T15:28:06.492Z,22.43
2018-10-12T15:30:35.488Z,15.87
2018-10-12T15:33:04.460Z,20.30
2018-10-12T15:35:33.134Z,17.97
2018-10-12T15:38:02.108Z,16.23
2018-10-12T15:40:30.903Z,17.90
2018-10-12T15:43:00.248Z,16.20
2018-10-12T15:45:29.482Z,21.83
2018-10-12T15:47:58.646Z,14.87
2018-10-12T15:50:27.492Z,19.90
2018-10-12T15:52:56.642Z,19.63
2018-10-12T15:55:25.630Z,17.97
2018-10-12T15:57:54.676Z,11.90
2018-10-12T16:00:23.642Z,15.03
2018-10-12T16:02:52.593Z,13.00
2018-10-12T16:05:21.363Z,17.47
2018-10-12T16:07:50.126Z,16.37
2018-10-12T16:10:19.258Z,18.57
2018-10-12T16:12:48.926Z,28.07
2018-10-12T16:15:18.055Z,16.87
2018-10-12T16:17:47.019Z,19.13
2018-10-12T16:20:16.000Z,27.27
2018-10-12T16:22:44.961Z,19.83
2018-10-12T16:25:25.227Z,17.73
2018-10-12T16:27:54.293Z,22.07
2018-10-12T16:30:23.148Z,17.67
2018-10-12T16:32:52.403Z,15.57
2018-10-12T16:35:21.212Z,24.13
2018-10-12T16:37:50.214Z,18.13
2018-10-12T16:40:19.295Z,18.50
2018-10-12T16:42:48.162Z,18.93
2018-10-12T16:45:17.467Z,12.27
2018-10-12T16:47:46.742Z,15.67
2018-10-12T16:50:15.771Z,16.43
2018-10-12T16:52:44.772Z,21.63
2018-10-12T16:55:13.873Z,16.23
2018-10-12T16:57:43.119Z,16.27
2018-10-12T17:00:12.209Z,15.43
2018-10-12T17:02:41.254Z,16.47
2018-10-12T17:05:09.887Z,21.67
2018-10-12T17:07:38.979Z,19.47
2018-10-12T17:10:08.460Z,19.43
2018-10-12T17:12:37.647Z,22.67
2018-10-12T17:15:07.702Z,14.67
2018-10-12T17:17:36.775Z,15.10
2018-10-12T17:20:06.064Z,15.50
2018-10-12T17:22:35.493Z,17.43
2018-10-12T17:25:04.308Z,34.67
2018-10-12T17:27:33.382Z,18.13
2018-10-12T17:30:02.844Z,15.70
2018-10-12T17:32:31.564Z,15.90
2018-10-12T17:35:00.312Z,16.87
2018-10-12T17:37:29.147Z,17.20
2018-10-12T17:39:58.007Z,18.70
2018-10-12T17:42:26.853Z,14.63
2018-10-12T17:44:55.828Z,17.60
2018-10-12T17:47:24.987Z,24.03
2018-10-12T17:50:00.340Z,17.90
2018-10-12T17:52:29.315Z,19.03
2018-10-12T17:54:58.422Z,17.90
2018-10-12T17:57:28.518Z,20.00
2018-10-12T17:59:57.664Z,18.70
2018-10-12T18:02:26.599Z,21.40
2018-10-12T18:04:55.398Z,21.47
2018-10-12T18:07:24.316Z,17.67
2018-10-12T18:09:53.101Z,15.47
2018-10-12T18:12:22.003Z,19.27
2018-10-12T18:14:50.783Z,20.53
2018-10-12T18:17:19.511Z,18.23
2018-10-12T18:19:48.546Z,20.53
2018-10-12T18:22:17.415Z,17.27
2018-10-12T18:24:46.537Z,13.30
2018-10-12T18:27:15.730Z,18.47
2018-10-12T18:29:44.740Z,23.60
2018-10-12T18:32:13.379Z,23.00
2018-10-12T18:34:42.110Z,20.63
2018-10-12T18:37:11.005Z,15.43
2018-10-12T18:39:40.003Z,20.63
2018-10-12T18:42:09.011Z,18.57
2018-10-12T18:44:37.884Z,23.77
2018-10-12T18:47:06.580Z,18.70
2018-10-12T18:49:35.572Z,18.07
2018-10-12T18:52:04.591Z,16.17
2018-10-12T18:54:33.844Z,17.60
2018-10-12T18:57:02.734Z,14.90
2018-10-12T18:59:31.713Z,18.47
2018-10-12T19:02:00.846Z,14.17
2018-10-12T19:04:29.750Z,18.40
2018-10-12T19:06:58.694Z,22.97
2018-10-12T19:09:27.623Z,15.57
2018-10-12T19:11:56.503Z,17.90
2018-10-12T19:14:25.607Z,12.67
2018-10-12T19:16:54.388Z,16.43
2018-10-12T19:19:23.212Z,13.93
2018-10-12T19:21:52.390Z,14.80
2018-10-12T19:24:21.281Z,13.30
2018-10-12T19:26:50.176Z,19.87
2018-10-12T19:29:19.069Z,16.17
2018-10-12T19:31:47.757Z,17.30
2018-10-12T19:34:16.427Z,16.40
2018-10-12T19:36:45.547Z,14.97
2018-10-12T19:39:14.330Z,18.03
2018-10-12T19:41:43.000Z,21.23
2018-10-12T19:44:12.331Z,16.53
2018-10-12T19:46:41.516Z,19.47
2018-10-12T19:49:10.827Z,12.90
2018-10-12T19:51:39.698Z,20.80
2018-10-12T19:54:08.698Z,14.67
2018-10-12T19:56:37.487Z,15.33
2018-10-12T19:59:06.540Z,18.37
2018-10-12T20:01:35.236Z,11.90
2018-10-12T20:04:03.898Z,17.53
2018-10-12T20:06:32.895Z,26.00
2018-10-12T20:09:01.812Z,21.07
2018-10-12T20:11:30.785Z,13.97
2018-10-12T20:13:59.931Z,15.00
2018-10-12T20:16:28.867Z,19.10
2018-10-12T20:18:57.713Z,15.97
2018-10-12T20:21:26.509Z,14.53
2018-10-12T20:23:55.813Z,21.13
2018-10-12T20:26:24.698Z,17.90
2018-10-12T20:28:53.523Z,14.60
2018-10-12T20:31:22.641Z,12.47
2018-10-12T20:33:51.266Z,17.47
2018-10-12T20:36:20.103Z,14.80
2018-10-12T20:38:49.086Z,11.80
2018-10-12T20:41:17.799Z,15.40
2018-10-12T20:43:46.706Z,13.83
2018-10-12T20:46:16.010Z,18.07
2018-10-12T20:48:44.819Z,13.47
2018-10-12T20:51:14.041Z,11.70
2018-10-12T20:53:43.068Z,13.23
2018-10-12T20:56:12.043Z,12.23
2018-10-12T20:58:41.170Z,15.07
2018-10-12T21:01:10.222Z,13.70
2018-10-12T21:03:38.981Z,11.90
2018-10-12T21:06:08.254Z,18.47
2018-10-12T21:08:37.554Z,15.30
2018-10-12T21:11:06.284Z,11.23
2018-10-12T21:13:34.994Z,15.53
2018-10-12T21:16:04.088Z,14.80
2018-10-12T21:18:33.230Z,10.63
2018-10-12T21:21:02.093Z,9.00
2018-10-12T21:23:31.035Z,13.50
2018-10-12T21:26:00.208Z,14.13
2018-10-12T21:28:29.333Z,12.37
2018-10-12T21:30:58.058Z,12.37
2018-10-12T21:33:26.801Z,12.17
2018-10-12T21:35:55.601Z,13.17
2018-10-12T21:38:24.500Z,12.03
2018-10-12T21:40:53.131Z,10.03
2018-10-12T21:43:22.293Z,14.53
2018-10-12T21:45:51.215Z,13.40
2018-10-12T21:48:20.313Z,11.60
2018-10-12T21:50:49.550Z,14.53
2018-10-12T21:53:18.570Z,18.73
2018-10-12T21:55:47.765Z,13.17
2018-10-12T21:58:16.779Z,14.90
2018-10-12T22:00:49.749Z,18.70
2018-10-12T22:03:18.829Z,15.80
2018-10-12T22:05:47.540Z,14.97
2018-10-12T22:08:21.970Z,15.67
2018-10-12T22:10:50.949Z,10.17
2018-10-12T22:13:19.924Z,14.07
2018-10-12T22:15:48.779Z,11.13
2018-10-12T22:18:17.676Z,11.43
2018-10-12T22:20:46.613Z,11.80
2018-10-12T22:23:15.773Z,12.73
2018-10-12T22:25:44.874Z,12.57
2018-10-12T22:28:14.530Z,17.57
2018-10-12T22:30:43.207Z,11.57
2018-10-12T22:33:11.945Z,11.60
2018-10-12T22:35:41.003Z,15.10
2018-10-12T22:38:09.986Z,10.70
2018-10-12T22:40:38.741Z,9.33
2018-10-12T22:43:08.114Z,11.90
2018-10-12T22:45:37.079Z,15.03
2018-10-12T22:48:05.963Z,16.73
2018-10-12T22:50:35.183Z,15.00
2018-10-12T22:53:05.084Z,10.17
2018-10-12T22:55:33.860Z,16.30
2018-10-12T22:58:03.535Z,14.33
2018-10-12T23:00:33.426Z,16.70
2018-10-12T23:03:02.717Z,11.87
2018-10-12T23:05:31.779Z,12.50
2018-10-12T23:08:00.687Z,15.67
2018-10-12T23:10:30.003Z,13.77
2018-10-12T23:12:58.906Z,14.43
2018-10-12T23:15:27.862Z,10.63
2018-10-12T23:17:56.776Z,10.83
2018-10-12T23:20:25.870Z,15.80
2018-10-12T23:22:54.994Z,14.53
2018-10-12T23:25:24.043Z,13.53
2018-10-12T23:27:53.308Z,12.33
2018-10-12T23:30:22.028Z,13.77
2018-10-12T23:32:50.691Z,16.40
2018-10-12T23:35:19.837Z,17.73
2018-10-12T23:37:51.674Z,18.20
2018-10-12T23:40:20.742Z,13.63
2018-10-12T23:42:49.477Z,18.03
2018-10-12T23:45:18.604Z,21.40
2018-10-12T23:47:47.476Z,15.93
2018-10-12T23:50:16.432Z,15.27
2018-10-12T23:52:45.366Z,14.77
2018-10-12T23:55:14.796Z,24.17
2018-10-12T23:57:43.468Z,13.87
